createdAt,value
2022-11-11T00:01:00.964Z,8.03
2022-11-11T00:03:28.018Z,11.23
2022-11-11T00:05:54.666Z,9.37
2022-11-11T00:08:21.273Z,9.60
2022-11-11T00:10:47.659Z,11.97
2022-11-11T00:13:13.975Z,14.50
2022-11-11T00:15:40.414Z,9.47
2022-11-11T00:18:25.798Z,9.13
2022-11-11T00:21:11.239Z,9.37
2022-11-11T00:23:56.313Z,14.30
2022-11-11T00:26:39.249Z,9.37
2022-11-11T00:29:06.545Z,8.17
2022-11-11T00:31:34.875Z,13.27
2022-11-11T00:34:01.386Z,11.63
2022-11-11T00:36:27.792Z,8.77
2022-11-11T00:38:55.853Z,11.07
2022-11-11T00:41:23.137Z,12.57
2022-11-11T00:43:49.513Z,16.17
2022-11-11T00:46:35.122Z,13.53
2022-11-11T00:49:20.275Z,15.93
2022-11-11T00:51:46.671Z,11.73
2022-11-11T00:54:13.153Z,10.97
2022-11-11T00:56:39.889Z,19.73
2022-11-11T00:59:07.460Z,14.70
2022-11-11T01:01:34.730Z,12.23
2022-11-11T01:04:01.395Z,10.77
2022-11-11T01:06:28.351Z,15.33
2022-11-11T01:08:54.797Z,18.90
2022-11-11T01:11:22.678Z,17.03
2022-11-11T01:13:49.534Z,13.20
2022-11-11T01:16:20.873Z,15.67
2022-11-11T01:18:47.667Z,13.57
2022-11-11T01:21:15.385Z,13.90
2022-11-11T01:23:42.760Z,10.43
2022-11-11T01:26:30.630Z,17.27
2022-11-11T01:28:58.436Z,14.73
2022-11-11T01:31:25.794Z,16.00
2022-11-11T01:33:52.242Z,10.27
2022-11-11T01:36:21.070Z,16.40
2022-11-11T01:38:51.656Z,21.00
2022-11-11T01:41:34.523Z,19.13
2022-11-11T01:44:02.002Z,10.77
2022-11-11T01:46:43.393Z,10.67
2022-11-11T01:49:36.233Z,10.63
2022-11-11T01:52:21.476Z,15.07
2022-11-11T01:54:47.944Z,11.77
2022-11-11T01:57:14.399Z,15.83
2022-11-11T01:59:43.176Z,15.90
2022-11-11T02:02:17.766Z,12.87
2022-11-11T02:05:03.633Z,12.17
2022-11-11T02:07:31.207Z,13.43
2022-11-11T02:09:58.015Z,17.20
2022-11-11T02:12:43.168Z,15.60
2022-11-11T02:15:09.768Z,10.77
2022-11-11T02:17:36.373Z,13.47
2022-11-11T02:20:03.596Z,11.40
2022-11-11T02:22:36.286Z,19.90
2022-11-11T02:25:03.700Z,12.60
2022-11-11T02:27:31.220Z,13.40
2022-11-11T02:29:59.475Z,12.37
2022-11-11T02:32:25.982Z,10.53
2022-11-11T02:34:52.344Z,20.33
2022-11-11T02:37:21.445Z,12.27
2022-11-11T02:40:03.157Z,12.23
2022-11-11T02:42:30.895Z,15.90
2022-11-11T02:44:59.061Z,22.20
2022-11-11T02:47:26.295Z,13.03
2022-11-11T02:49:52.915Z,10.30
2022-11-11T02:52:19.462Z,13.67
2022-11-11T02:54:46.648Z,15.10
2022-11-11T02:57:13.099Z,11.27
2022-11-11T02:59:40.618Z,8.67
2022-11-11T03:02:08.184Z,20.07
2022-11-11T03:04:35.344Z,12.73
2022-11-11T03:07:01.760Z,18.77
2022-11-11T03:09:28.680Z,13.60
2022-11-11T03:11:55.235Z,11.90
2022-11-11T03:14:21.799Z,11.13
2022-11-11T03:17:06.744Z,9.97
2022-11-11T03:19:33.435Z,12.67
2022-11-11T03:25:05.269Z,15.20
2022-11-11T03:27:31.601Z,15.00
2022-11-11T03:29:57.927Z,13.43
2022-11-11T03:32:24.254Z,11.63
2022-11-11T03:34:50.657Z,14.80
2022-11-11T03:37:35.554Z,13.43
2022-11-11T03:40:01.913Z,15.20
2022-11-11T03:42:28.234Z,11.27
2022-11-11T03:44:54.573Z,13.50
2022-11-11T03:47:21.069Z,17.23
2022-11-11T03:49:47.426Z,13.90
2022-11-11T03:52:14.021Z,12.60
2022-11-11T03:54:40.454Z,13.33
2022-11-11T03:57:25.250Z,16.23
2022-11-11T03:59:51.598Z,13.33
2022-11-11T04:02:36.424Z,13.13
2022-11-11T04:05:21.294Z,10.47
2022-11-11T04:08:06.079Z,13.70
2022-11-11T04:10:32.499Z,15.43
2022-11-11T04:13:17.684Z,12.63
2022-11-11T04:16:02.610Z,18.17
2022-11-11T04:18:47.502Z,12.30
2022-11-11T04:21:32.353Z,9.63
2022-11-11T04:23:58.697Z,15.80
2022-11-11T04:26:25.050Z,13.60
2022-11-11T04:29:17.444Z,12.97
2022-11-11T04:32:02.218Z,11.93
2022-11-11T04:34:28.575Z,21.97
2022-11-11T04:36:55.028Z,13.20
2022-11-11T04:39:39.845Z,15.53
2022-11-11T04:42:08.785Z,12.60
2022-11-11T04:44:53.811Z,11.50
2022-11-11T04:47:20.166Z,17.97
2022-11-11T04:49:46.507Z,20.67
2022-11-11T04:52:27.970Z,16.40
2022-11-11T04:55:17.823Z,17.27
2022-11-11T04:57:47.876Z,13.63
2022-11-11T05:00:15.677Z,14.63
2022-11-11T05:03:01.054Z,16.07
2022-11-11T05:05:27.902Z,15.63
2022-11-11T05:08:13.474Z,18.57
2022-11-11T05:10:39.877Z,17.27
2022-11-11T05:13:25.214Z,14.10
2022-11-11T05:16:10.651Z,20.37
2022-11-11T05:18:55.491Z,13.37
2022-11-11T05:21:25.585Z,16.07
2022-11-11T05:24:10.655Z,12.10
2022-11-11T05:26:37.036Z,15.77
2022-11-11T05:29:03.542Z,22.17
2022-11-11T05:31:30.198Z,15.23
2022-11-11T05:33:56.800Z,14.43
2022-11-11T05:36:23.362Z,15.53
2022-11-11T05:38:49.720Z,15.57
2022-11-11T05:41:16.051Z,14.10
2022-11-11T05:43:42.405Z,16.20
2022-11-11T05:46:08.728Z,16.50
2022-11-11T05:48:35.090Z,14.73
2022-11-11T05:51:01.684Z,13.13
2022-11-11T05:53:28.472Z,21.03
2022-11-11T05:55:54.861Z,17.90
2022-11-11T05:58:21.220Z,22.30
2022-11-11T06:00:47.784Z,19.17
2022-11-11T06:03:14.136Z,23.37
2022-11-11T06:05:40.528Z,18.83
2022-11-11T06:08:06.873Z,15.20
2022-11-11T06:10:33.323Z,18.70
2022-11-11T06:13:04.927Z,25.97
2022-11-11T06:15:33.127Z,22.67
2022-11-11T06:17:59.551Z,21.73
2022-11-11T06:20:25.958Z,21.27
2022-11-11T06:22:58.500Z,21.97
2022-11-11T06:25:47.826Z,22.50
2022-11-11T06:28:14.736Z,24.07
2022-11-11T06:30:51.080Z,25.27
2022-11-11T06:33:17.939Z,16.57
2022-11-11T06:35:45.370Z,26.00
2022-11-11T06:38:11.838Z,22.77
2022-11-11T06:40:38.216Z,18.23
2022-11-11T06:43:04.597Z,19.87
2022-11-11T06:45:31.634Z,27.53
2022-11-11T06:47:58.111Z,22.40
2022-11-11T06:50:24.498Z,20.97
2022-11-11T06:52:50.845Z,20.20
2022-11-11T06:55:17.189Z,19.97
2022-11-11T06:57:43.615Z,24.70
2022-11-11T07:00:10.362Z,26.43
2022-11-11T07:02:36.790Z,29.10
2022-11-11T07:05:03.564Z,19.87
2022-11-11T07:07:30.040Z,25.27
2022-11-11T07:09:56.473Z,31.33
2022-11-11T07:12:23.039Z,29.87
2022-11-11T07:14:49.521Z,27.10
2022-11-11T07:17:15.933Z,30.93
2022-11-11T07:19:42.576Z,27.97
2022-11-11T07:22:09.143Z,25.67
2022-11-11T07:24:35.669Z,27.33
2022-11-11T07:27:02.353Z,22.23
2022-11-11T07:29:29.390Z,24.97
2022-11-11T07:31:55.804Z,34.90
2022-11-11T07:34:22.213Z,33.27
2022-11-11T07:36:48.554Z,32.27
2022-11-11T07:39:14.863Z,28.93
2022-11-11T07:41:41.447Z,32.47
2022-11-11T07:44:07.955Z,24.43
2022-11-11T07:46:34.310Z,27.43
2022-11-11T07:49:00.664Z,40.23
2022-11-11T07:51:27.032Z,27.87
2022-11-11T07:53:53.372Z,31.23
2022-11-11T07:56:19.695Z,33.03
2022-11-11T07:58:46.022Z,38.33
2022-11-11T08:01:12.459Z,31.30
2022-11-11T08:03:49.714Z,32.40
2022-11-11T08:06:20.144Z,30.23
2022-11-11T08:08:46.525Z,32.47
2022-11-11T08:11:13.423Z,29.63
2022-11-11T08:13:43.669Z,30.40
2022-11-11T08:16:14.990Z,36.90
2022-11-11T08:18:41.673Z,26.67
2022-11-11T08:21:09.435Z,35.20
2022-11-11T08:24:10.579Z,26.77
2022-11-11T08:26:29.278Z,38.17
2022-11-11T08:28:55.853Z,29.27
2022-11-11T08:31:22.177Z,27.50
2022-11-11T08:33:48.842Z,34.33
2022-11-11T08:36:20.462Z,29.37
2022-11-11T08:38:47.486Z,32.17
2022-11-11T08:41:14.073Z,30.63
2022-11-11T08:43:40.423Z,31.07
2022-11-11T08:46:06.924Z,32.07
2022-11-11T08:48:33.438Z,34.23
2022-11-11T08:50:59.829Z,35.40
2022-11-11T08:53:27.016Z,27.30
2022-11-11T08:55:54.131Z,30.43
2022-11-11T08:58:20.894Z,32.83
2022-11-11T09:00:47.428Z,28.57
2022-11-11T09:03:13.901Z,29.80
2022-11-11T09:05:40.870Z,32.27
2022-11-11T09:08:08.046Z,35.47
2022-11-11T09:10:35.058Z,30.17
2022-11-11T09:13:01.720Z,25.30
2022-11-11T09:15:28.834Z,28.43
2022-11-11T09:17:55.181Z,28.60
2022-11-11T09:20:24.990Z,32.77
2022-11-11T09:22:53.148Z,30.70
2022-11-11T09:25:20.066Z,29.63
2022-11-11T09:27:56.612Z,30.77
2022-11-11T09:30:23.209Z,23.40
2022-11-11T09:32:49.626Z,25.57
2022-11-11T09:35:16.119Z,36.43
2022-11-11T09:37:42.517Z,31.53
2022-11-11T09:40:17.116Z,28.70
2022-11-11T09:42:55.000Z,25.27
2022-11-11T09:45:26.712Z,32.57
2022-11-11T09:48:24.992Z,22.17
2022-11-11T09:50:54.636Z,27.00
2022-11-11T09:53:33.371Z,34.43
2022-11-11T09:56:32.408Z,35.60
2022-11-11T09:59:03.093Z,34.73
2022-11-11T10:01:31.255Z,32.17
2022-11-11T10:04:05.616Z,34.57
2022-11-11T10:06:33.631Z,30.30
2022-11-11T10:09:03.066Z,31.93
2022-11-11T10:11:55.983Z,28.30
2022-11-11T10:14:22.380Z,34.33
2022-11-11T10:17:00.858Z,28.70
2022-11-11T10:19:27.178Z,28.23
2022-11-11T10:22:12.361Z,29.50
2022-11-11T10:24:47.035Z,26.77
2022-11-11T10:27:20.956Z,31.60
2022-11-11T10:29:48.503Z,27.37
2022-11-11T10:32:23.208Z,28.93
2022-11-11T10:34:49.628Z,28.80
2022-11-11T10:37:21.502Z,29.53
2022-11-11T10:40:03.705Z,24.70
2022-11-11T10:42:30.045Z,30.90
2022-11-11T10:45:03.830Z,28.57
2022-11-11T10:47:45.529Z,31.50
2022-11-11T10:50:21.249Z,28.53
2022-11-11T10:53:07.884Z,27.80
2022-11-11T10:55:45.471Z,27.97
2022-11-11T10:58:11.785Z,31.77
2022-11-11T11:00:43.798Z,23.40
2022-11-11T11:03:16.130Z,24.37
2022-11-11T11:05:46.358Z,28.33
2022-11-11T11:08:14.765Z,23.73
2022-11-11T11:10:43.139Z,25.30
2022-11-11T11:13:13.084Z,23.27
2022-11-11T11:15:41.230Z,24.27
2022-11-11T11:18:10.883Z,27.00
2022-11-11T11:20:37.351Z,24.80
2022-11-11T11:23:03.935Z,24.97
2022-11-11T11:25:32.769Z,21.23
2022-11-11T11:28:08.721Z,24.50
2022-11-11T11:30:35.073Z,27.67
2022-11-11T11:33:02.605Z,36.00
2022-11-11T11:35:31.904Z,23.90
2022-11-11T11:37:58.501Z,26.70
2022-11-11T11:40:24.894Z,25.33
2022-11-11T11:42:51.244Z,25.47
2022-11-11T11:45:29.307Z,22.70
2022-11-11T11:48:31.053Z,27.83
2022-11-11T11:51:09.280Z,25.33
2022-11-11T11:53:38.429Z,24.67
2022-11-11T11:56:15.406Z,27.03
2022-11-11T11:58:58.663Z,32.57
2022-11-11T12:01:30.710Z,24.00
2022-11-11T12:04:04.133Z,23.47
2022-11-11T12:06:30.438Z,25.77
2022-11-11T12:08:56.763Z,25.00
2022-11-11T12:11:28.831Z,25.43
2022-11-11T12:14:14.073Z,26.10
2022-11-11T12:16:46.882Z,24.60
2022-11-11T12:19:25.730Z,32.17
2022-11-11T12:22:04.886Z,29.60
2022-11-11T12:24:42.871Z,25.07
2022-11-11T12:27:25.461Z,20.67
2022-11-11T12:30:00.927Z,24.47
2022-11-11T12:32:48.957Z,25.30
2022-11-11T12:35:34.766Z,25.70
2022-11-11T12:38:39.466Z,24.20
2022-11-11T12:41:23.753Z,29.07
2022-11-11T12:43:52.903Z,26.50
2022-11-11T12:46:26.853Z,24.97
2022-11-11T12:48:53.201Z,22.67
2022-11-11T12:51:19.505Z,23.77
2022-11-11T12:54:00.781Z,23.60
2022-11-11T12:56:38.792Z,22.40
2022-11-11T12:59:20.346Z,20.60
2022-11-11T13:02:05.388Z,23.70
2022-11-11T13:04:51.976Z,24.50
2022-11-11T13:07:32.347Z,23.83
2022-11-11T13:10:08.486Z,19.93
2022-11-11T13:12:43.815Z,20.90
2022-11-11T13:15:13.677Z,22.83
2022-11-11T13:17:40.140Z,22.13
2022-11-11T13:20:13.653Z,25.23
2022-11-11T13:22:40.065Z,22.40
2022-11-11T13:25:09.671Z,20.90
2022-11-11T13:27:45.368Z,24.57
2022-11-11T13:30:30.651Z,21.57
2022-11-11T13:33:02.489Z,22.13
2022-11-11T13:35:37.982Z,23.30
2022-11-11T13:38:04.582Z,27.83
2022-11-11T13:40:33.754Z,21.60
2022-11-11T13:43:00.386Z,21.80
2022-11-11T13:45:49.487Z,24.90
2022-11-11T13:48:21.705Z,27.00
2022-11-11T13:50:48.097Z,19.47
2022-11-11T13:53:16.507Z,23.03
2022-11-11T13:55:43.876Z,22.83
2022-11-11T13:58:28.713Z,24.67
2022-11-11T14:00:59.909Z,23.37
2022-11-11T14:03:26.659Z,23.80
2022-11-11T14:06:13.261Z,23.67
2022-11-11T14:08:45.746Z,22.23
2022-11-11T14:11:24.356Z,25.43
2022-11-11T14:13:51.352Z,22.97
2022-11-11T14:16:37.633Z,24.27
2022-11-11T14:19:18.920Z,22.90
2022-11-11T14:21:59.145Z,22.37
2022-11-11T14:24:39.575Z,25.90
2022-11-11T14:27:09.053Z,21.47
2022-11-11T14:29:47.913Z,20.93
2022-11-11T14:32:14.228Z,21.73
2022-11-11T14:35:00.844Z,20.80
2022-11-11T14:37:33.213Z,25.77
2022-11-11T14:40:00.230Z,25.83
2022-11-11T14:42:35.445Z,24.67
2022-11-11T14:45:02.514Z,24.37
2022-11-11T14:47:34.831Z,24.33
2022-11-11T14:50:01.502Z,20.90
2022-11-11T14:52:41.225Z,21.93
2022-11-11T14:55:23.028Z,20.77
2022-11-11T14:57:57.149Z,19.20
2022-11-11T15:00:24.997Z,18.70
2022-11-11T15:02:53.320Z,22.17
2022-11-11T15:05:34.823Z,22.40
2022-11-11T15:08:23.266Z,21.40
2022-11-11T15:10:58.854Z,20.53
2022-11-11T15:13:30.967Z,23.57
2022-11-11T15:16:05.345Z,19.17
2022-11-11T15:18:51.093Z,19.83
2022-11-11T15:21:23.252Z,22.57
2022-11-11T15:23:56.773Z,22.13
2022-11-11T15:26:23.205Z,19.77
2022-11-11T15:28:49.520Z,24.37
2022-11-11T15:31:28.092Z,22.70
2022-11-11T15:33:58.656Z,21.17
2022-11-11T15:36:36.775Z,18.17
2022-11-11T15:39:10.336Z,20.00
2022-11-11T15:41:38.321Z,21.37
2022-11-11T15:44:09.398Z,23.87
2022-11-11T15:46:40.360Z,17.40
2022-11-11T15:49:11.950Z,22.47
2022-11-11T15:51:38.684Z,21.60
2022-11-11T15:54:20.131Z,23.33
2022-11-11T15:56:46.493Z,23.30
2022-11-11T15:59:36.443Z,19.43
2022-11-11T16:02:07.390Z,25.43
2022-11-11T16:04:55.050Z,25.87
2022-11-11T16:07:40.366Z,18.33
2022-11-11T16:10:08.476Z,20.33
2022-11-11T16:12:57.865Z,22.00
2022-11-11T16:15:44.126Z,19.97
2022-11-11T16:18:14.501Z,22.13
2022-11-11T16:20:43.695Z,21.10
2022-11-11T16:23:13.800Z,19.37
2022-11-11T16:25:40.202Z,18.70
2022-11-11T16:28:06.764Z,18.50
2022-11-11T16:30:34.146Z,20.17
2022-11-11T16:33:01.187Z,18.70
2022-11-11T16:35:36.304Z,21.53
2022-11-11T16:38:04.138Z,22.00
2022-11-11T16:40:33.645Z,30.80
2022-11-11T16:43:17.682Z,31.23
2022-11-11T16:45:53.302Z,22.47
2022-11-11T16:48:31.681Z,22.77
2022-11-11T16:51:02.050Z,23.40
2022-11-11T16:53:35.226Z,21.60
2022-11-11T16:56:02.737Z,19.80
2022-11-11T16:58:29.397Z,21.17
2022-11-11T17:01:03.110Z,23.33
2022-11-11T17:03:30.204Z,22.77
2022-11-11T17:06:00.628Z,22.60
2022-11-11T17:08:37.174Z,22.70
2022-11-11T17:11:04.640Z,22.43
2022-11-11T17:13:33.469Z,19.40
2022-11-11T17:16:04.420Z,18.27
2022-11-11T17:18:35.294Z,21.60
2022-11-11T17:21:02.175Z,17.80
2022-11-11T17:23:28.634Z,17.30
2022-11-11T17:25:56.199Z,21.37
2022-11-11T17:28:22.746Z,26.53
2022-11-11T17:30:49.072Z,21.47
2022-11-11T17:33:15.486Z,28.77
2022-11-11T17:35:49.621Z,39.43
2022-11-11T17:38:15.954Z,27.07
2022-11-11T17:40:46.649Z,21.33
2022-11-11T17:43:13.494Z,21.97
2022-11-11T17:45:40.234Z,18.30
2022-11-11T17:48:07.288Z,22.90
2022-11-11T17:50:33.633Z,22.90
2022-11-11T17:52:59.956Z,21.83
2022-11-11T17:55:26.279Z,24.20
2022-11-11T17:57:52.676Z,20.03
2022-11-11T18:00:19.191Z,20.23
2022-11-11T18:02:45.578Z,22.60
2022-11-11T18:05:11.955Z,21.07
2022-11-11T18:07:42.591Z,21.93
2022-11-11T18:10:11.817Z,20.47
2022-11-11T18:12:38.217Z,22.33
2022-11-11T18:15:05.401Z,21.37
2022-11-11T18:17:31.753Z,21.50
2022-11-11T18:19:58.094Z,19.60
2022-11-11T18:22:24.563Z,23.30
2022-11-11T18:24:50.913Z,18.20
2022-11-11T18:27:17.370Z,16.40
2022-11-11T18:29:43.730Z,17.33
2022-11-11T18:32:10.546Z,17.23
2022-11-11T18:34:36.947Z,22.10
2022-11-11T18:37:03.327Z,21.43
2022-11-11T18:39:29.676Z,23.83
2022-11-11T18:41:56.016Z,20.17
2022-11-11T18:44:22.494Z,26.07
2022-11-11T18:46:48.932Z,26.80
2022-11-11T18:49:15.560Z,23.20
2022-11-11T18:51:42.249Z,21.73
2022-11-11T18:54:08.701Z,20.10
2022-11-11T18:56:36.182Z,21.47
2022-11-11T18:59:03.249Z,21.43
2022-11-11T19:01:31.027Z,21.97
2022-11-11T19:03:59.061Z,21.80
2022-11-11T19:06:26.773Z,25.53
2022-11-11T19:08:57.217Z,55.50
2022-11-11T19:11:24.010Z,44.90
2022-11-11T19:13:50.461Z,31.03
2022-11-11T19:16:18.140Z,24.00
2022-11-11T19:18:44.677Z,24.00
2022-11-11T19:21:15.181Z,21.73
2022-11-11T19:23:42.689Z,30.93
2022-11-11T19:26:09.698Z,25.80
2022-11-11T19:28:36.630Z,29.63
2022-11-11T19:31:08.670Z,23.37
2022-11-11T19:33:36.057Z,56.23
2022-11-11T19:36:03.868Z,31.73
2022-11-11T19:38:30.961Z,31.63
2022-11-11T19:40:57.330Z,31.03
2022-11-11T19:43:24.983Z,27.13
2022-11-11T19:45:51.865Z,23.10
2022-11-11T19:48:18.187Z,24.30
2022-11-11T19:50:44.589Z,27.50
2022-11-11T19:53:11.777Z,28.97
2022-11-11T19:55:38.105Z,25.70
2022-11-11T19:58:04.476Z,28.57
2022-11-11T20:00:30.835Z,28.37
2022-11-11T20:02:57.146Z,28.50
2022-11-11T20:05:23.557Z,24.40
2022-11-11T20:07:53.604Z,24.77
2022-11-11T20:10:19.953Z,29.40
2022-11-11T20:12:46.296Z,29.50
2022-11-11T20:15:12.700Z,27.37
2022-11-11T20:17:39.129Z,28.13
2022-11-11T20:20:05.834Z,30.87
2022-11-11T20:22:32.190Z,29.53
2022-11-11T20:24:58.527Z,33.57
2022-11-11T20:27:24.920Z,28.40
2022-11-11T20:29:51.294Z,31.53
2022-11-11T20:32:17.878Z,26.40
2022-11-11T20:34:44.267Z,30.27
2022-11-11T20:37:10.628Z,28.53
2022-11-11T20:39:36.957Z,28.73
2022-11-11T20:42:03.379Z,33.23
2022-11-11T20:44:29.725Z,28.30
2022-11-11T20:46:56.134Z,29.60
2022-11-11T20:49:22.500Z,29.03
2022-11-11T20:51:48.837Z,30.07
2022-11-11T20:54:15.185Z,25.77
2022-11-11T20:56:41.591Z,28.67
2022-11-11T20:59:07.981Z,21.03
2022-11-11T21:01:34.464Z,26.50
2022-11-11T21:04:00.928Z,24.27
2022-11-11T21:06:27.729Z,24.30
2022-11-11T21:08:54.187Z,21.47
2022-11-11T21:11:21.749Z,26.63
2022-11-11T21:13:48.370Z,23.90
2022-11-11T21:16:17.650Z,23.87
2022-11-11T21:18:44.593Z,23.97
2022-11-11T21:21:24.687Z,25.53
2022-11-11T21:23:55.494Z,22.97
2022-11-11T21:26:21.826Z,20.70
2022-11-11T21:28:48.168Z,22.77
2022-11-11T21:31:20.057Z,22.07
2022-11-11T21:33:53.654Z,19.43
2022-11-11T21:36:20.404Z,19.50
2022-11-11T21:38:47.143Z,22.17
2022-11-11T21:41:20.556Z,24.10
2022-11-11T21:43:47.493Z,20.23
2022-11-11T21:46:15.529Z,23.77
2022-11-11T21:48:42.011Z,21.23
2022-11-11T21:51:08.359Z,30.13
2022-11-11T21:53:35.236Z,21.47
2022-11-11T21:56:02.581Z,21.17
2022-11-11T21:58:29.277Z,19.03
2022-11-11T22:01:02.119Z,21.17
2022-11-11T22:03:28.458Z,21.67
2022-11-11T22:05:54.777Z,25.90
2022-11-11T22:08:21.125Z,26.13
2022-11-11T22:10:47.778Z,20.23
2022-11-11T22:13:14.130Z,23.47
2022-11-11T22:15:40.553Z,27.30
2022-11-11T22:18:06.988Z,22.03
2022-11-11T22:20:33.345Z,24.03
2022-11-11T22:22:59.692Z,18.47
2022-11-11T22:25:27.563Z,23.50
2022-11-11T22:27:54.217Z,21.53
2022-11-11T22:30:20.646Z,21.60
2022-11-11T22:32:46.989Z,18.17
2022-11-11T22:35:13.802Z,23.23
2022-11-11T22:37:40.227Z,20.53
2022-11-11T22:40:06.941Z,19.07
2022-11-11T22:42:33.285Z,24.53
2022-11-11T22:44:59.629Z,25.53
2022-11-11T22:47:26.996Z,21.23
2022-11-11T22:49:53.469Z,28.07
2022-11-11T22:52:19.809Z,24.07
2022-11-11T22:54:46.179Z,22.47
2022-11-11T22:57:12.538Z,23.43
2022-11-11T22:59:38.949Z,20.90
2022-11-11T23:02:05.287Z,22.50
2022-11-11T23:04:31.622Z,24.60
2022-11-11T23:06:57.999Z,21.40
2022-11-11T23:09:24.354Z,21.53
2022-11-11T23:11:50.934Z,25.43
2022-11-11T23:14:17.288Z,24.57
2022-11-11T23:16:43.726Z,24.83
2022-11-11T23:19:10.090Z,25.93
2022-11-11T23:21:36.458Z,21.27
2022-11-11T23:24:02.876Z,22.27
2022-11-11T23:26:33.022Z,23.23
2022-11-11T23:28:59.605Z,30.63
2022-11-11T23:31:30.781Z,25.07
2022-11-11T23:33:58.609Z,22.47
2022-11-11T23:36:25.806Z,31.63
2022-11-11T23:38:52.421Z,28.97
2022-11-11T23:41:18.781Z,23.40
2022-11-11T23:43:45.128Z,25.03
2022-11-11T23:46:11.955Z,24.43
2022-11-11T23:48:38.723Z,29.67
2022-11-11T23:51:05.176Z,23.43
2022-11-11T23:53:31.951Z,25.33
2022-11-11T23:55:58.510Z,26.53
2022-11-11T23:58:25.194Z,27.17
